createdAt,value
2022-10-27T00:02:18.271Z,13.84
2022-10-27T00:04:44.128Z,13.90
2022-10-27T00:07:09.883Z,13.79
2022-10-27T00:09:35.638Z,13.76
2022-10-27T00:12:01.465Z,13.85
2022-10-27T00:14:29.604Z,13.75
2022-10-27T00:16:55.801Z,13.71
2022-10-27T00:19:23.438Z,13.70
2022-10-27T00:21:50.991Z,13.69
2022-10-27T00:24:20.240Z,13.67
2022-10-27T00:26:46.126Z,13.70
2022-10-27T00:29:12.001Z,13.80
2022-10-27T00:31:38.149Z,13.72
2022-10-27T00:34:03.871Z,13.67
2022-10-27T00:36:29.959Z,13.58
2022-10-27T00:38:57.959Z,13.61
2022-10-27T00:41:39.173Z,13.58
2022-10-27T00:44:34.535Z,13.67
2022-10-27T00:47:09.150Z,13.61
2022-10-27T00:49:45.112Z,13.58
2022-10-27T00:52:40.314Z,13.64
2022-10-27T00:55:14.218Z,13.63
2022-10-27T00:57:43.442Z,13.65
2022-10-27T01:00:09.787Z,13.62
2022-10-27T01:02:36.239Z,13.61
2022-10-27T01:05:18.185Z,13.68
2022-10-27T01:07:45.098Z,13.69
2022-10-27T01:10:12.086Z,13.62
2022-10-27T01:12:38.538Z,13.56
2022-10-27T01:15:04.956Z,13.60
2022-10-27T01:17:41.594Z,13.61
2022-10-27T01:20:10.154Z,13.56
2022-10-27T01:22:45.064Z,13.35
2022-10-27T01:25:46.834Z,13.33
2022-10-27T01:28:36.935Z,13.32
2022-10-27T01:31:26.221Z,13.44
2022-10-27T01:34:06.769Z,13.35
2022-10-27T01:36:45.369Z,13.45
2022-10-27T01:39:18.100Z,13.42
2022-10-27T01:41:55.651Z,13.44
2022-10-27T01:44:27.859Z,13.31
2022-10-27T01:46:55.208Z,13.31
2022-10-27T01:49:21.031Z,13.28
2022-10-27T01:51:48.635Z,13.33
2022-10-27T01:54:15.853Z,13.29
2022-10-27T01:56:57.123Z,13.29
2022-10-27T01:59:34.676Z,13.30
2022-10-27T02:02:09.413Z,13.28
2022-10-27T02:04:50.038Z,13.38
2022-10-27T02:07:39.841Z,13.28
2022-10-27T02:10:25.501Z,13.23
2022-10-27T02:12:53.053Z,13.36
2022-10-27T02:15:39.296Z,13.34
2022-10-27T02:18:09.846Z,13.23
2022-10-27T02:20:40.468Z,13.18
2022-10-27T02:23:09.715Z,13.19
2022-10-27T02:26:10.709Z,13.31
2022-10-27T02:28:42.865Z,13.32
2022-10-27T02:31:10.420Z,13.19
2022-10-27T02:33:36.347Z,13.28
2022-10-27T02:36:02.123Z,13.30
2022-10-27T02:38:27.931Z,13.20
2022-10-27T02:40:53.658Z,13.18
2022-10-27T02:43:19.439Z,13.29
2022-10-27T02:45:45.280Z,13.26
2022-10-27T02:48:10.996Z,13.35
2022-10-27T02:50:36.853Z,13.36
2022-10-27T02:53:02.675Z,13.30
2022-10-27T02:55:28.515Z,13.27
2022-10-27T02:57:54.224Z,13.32
2022-10-27T03:00:20.100Z,13.26
2022-10-27T03:02:47.375Z,13.21
2022-10-27T03:05:13.310Z,13.21
2022-10-27T03:07:39.037Z,13.19
2022-10-27T03:10:05.409Z,13.30
2022-10-27T03:12:31.251Z,13.16
2022-10-27T03:14:56.961Z,13.12
2022-10-27T03:17:22.793Z,13.11
2022-10-27T03:19:48.539Z,13.00
2022-10-27T03:22:14.354Z,13.14
2022-10-27T03:24:40.212Z,13.06
2022-10-27T03:27:06.021Z,13.19
2022-10-27T03:29:31.789Z,13.03
2022-10-27T03:31:57.681Z,13.27
2022-10-27T03:34:23.488Z,13.32
2022-10-27T03:36:49.311Z,13.42
2022-10-27T03:39:15.488Z,13.35
2022-10-27T03:41:41.380Z,13.40
2022-10-27T03:44:07.225Z,13.26
2022-10-27T03:46:33.020Z,13.19
2022-10-27T03:48:58.811Z,13.12
2022-10-27T03:51:24.560Z,13.03
2022-10-27T03:53:50.457Z,12.82
2022-10-27T03:56:16.304Z,12.82
2022-10-27T03:58:42.244Z,12.91
2022-10-27T04:01:10.513Z,12.90
2022-10-27T04:03:38.506Z,12.78
2022-10-27T04:06:05.161Z,12.76
2022-10-27T04:08:30.841Z,12.95
2022-10-27T04:10:56.649Z,12.88
2022-10-27T04:13:25.470Z,12.85
2022-10-27T04:15:54.178Z,12.89
2022-10-27T04:18:19.942Z,12.84
2022-10-27T04:20:45.715Z,12.77
2022-10-27T04:23:11.462Z,12.79
2022-10-27T04:25:37.175Z,12.81
2022-10-27T04:28:07.453Z,12.87
2022-10-27T04:30:33.980Z,13.00
2022-10-27T04:32:59.977Z,12.91
2022-10-27T04:35:25.914Z,12.94
2022-10-27T04:37:54.255Z,12.99
2022-10-27T04:40:20.171Z,13.00
2022-10-27T04:42:46.372Z,13.01
2022-10-27T04:45:13.333Z,12.96
2022-10-27T04:47:39.246Z,12.97
2022-10-27T04:50:05.368Z,12.87
2022-10-27T04:52:31.304Z,12.88
2022-10-27T04:54:57.134Z,12.95
2022-10-27T04:57:22.892Z,12.84
2022-10-27T04:59:48.932Z,12.88
2022-10-27T05:02:14.758Z,12.94
2022-10-27T05:04:40.701Z,12.86
2022-10-27T05:07:06.512Z,12.87
2022-10-27T05:09:32.250Z,12.87
2022-10-27T05:11:58.047Z,12.73
2022-10-27T05:14:23.787Z,12.67
2022-10-27T05:16:49.605Z,12.73
2022-10-27T05:19:15.444Z,12.75
2022-10-27T05:21:41.266Z,12.68
2022-10-27T05:24:07.154Z,12.66
2022-10-27T05:26:35.586Z,12.62
2022-10-27T05:29:03.943Z,12.61
2022-10-27T05:31:29.691Z,12.62
2022-10-27T05:33:55.564Z,12.62
2022-10-27T05:36:21.422Z,12.79
2022-10-27T05:38:47.184Z,12.74
2022-10-27T05:41:12.957Z,12.76
2022-10-27T05:43:42.541Z,12.80
2022-10-27T05:46:08.564Z,12.83
2022-10-27T05:48:34.323Z,12.77
2022-10-27T05:51:00.143Z,12.74
2022-10-27T05:53:25.872Z,12.82
2022-10-27T05:55:53.413Z,12.74
2022-10-27T05:58:19.339Z,12.73
2022-10-27T06:00:45.184Z,12.74
2022-10-27T06:03:20.137Z,12.69
2022-10-27T06:05:45.913Z,12.87
2022-10-27T06:08:11.717Z,12.79
2022-10-27T06:10:37.466Z,12.72
2022-10-27T06:13:05.145Z,12.70
2022-10-27T06:15:32.407Z,12.72
2022-10-27T06:17:58.637Z,12.70
2022-10-27T06:20:24.921Z,12.76
2022-10-27T06:22:50.744Z,12.70
2022-10-27T06:25:16.954Z,12.72
2022-10-27T06:27:42.897Z,12.65
2022-10-27T06:30:08.992Z,12.68
2022-10-27T06:32:40.533Z,12.73
2022-10-27T06:35:07.784Z,12.76
2022-10-27T06:37:37.084Z,12.84
2022-10-27T06:40:03.804Z,12.87
2022-10-27T06:42:34.860Z,13.01
2022-10-27T06:45:05.324Z,12.91
2022-10-27T06:47:31.344Z,12.83
2022-10-27T06:49:57.173Z,12.90
2022-10-27T06:52:23.070Z,12.91
2022-10-27T06:54:52.845Z,12.95
2022-10-27T06:57:20.179Z,13.02
2022-10-27T06:59:46.038Z,13.10
2022-10-27T07:02:13.887Z,13.16
2022-10-27T07:04:40.264Z,13.14
2022-10-27T07:07:06.272Z,13.20
2022-10-27T07:09:32.019Z,13.24
2022-10-27T07:11:57.766Z,13.27
2022-10-27T07:14:23.968Z,13.40
2022-10-27T07:16:49.701Z,13.52
2022-10-27T07:19:15.550Z,13.47
2022-10-27T07:21:41.319Z,13.44
2022-10-27T07:24:08.795Z,13.52
2022-10-27T07:26:37.889Z,13.50
2022-10-27T07:29:03.646Z,13.60
2022-10-27T07:31:29.428Z,13.59
2022-10-27T07:33:55.173Z,13.55
2022-10-27T07:36:20.979Z,13.68
2022-10-27T07:38:46.711Z,13.66
2022-10-27T07:41:12.475Z,13.71
2022-10-27T07:43:38.823Z,13.75
2022-10-27T07:46:04.660Z,13.82
2022-10-27T07:48:30.540Z,13.80
2022-10-27T07:50:56.490Z,13.82
2022-10-27T07:53:22.277Z,13.87
2022-10-27T07:55:48.032Z,13.99
2022-10-27T07:58:16.438Z,14.03
2022-10-27T08:00:44.693Z,14.19
2022-10-27T08:03:14.787Z,14.34
2022-10-27T08:05:40.586Z,14.34
2022-10-27T08:08:07.111Z,14.36
2022-10-27T08:10:35.742Z,14.36
2022-10-27T08:13:01.861Z,14.46
2022-10-27T08:15:27.869Z,14.58
2022-10-27T08:17:57.189Z,14.57
2022-10-27T08:20:23.522Z,14.52
2022-10-27T08:23:03.600Z,14.69
2022-10-27T08:25:30.153Z,14.74
2022-10-27T08:27:56.951Z,14.74
2022-10-27T08:30:24.967Z,14.80
2022-10-27T08:32:56.566Z,14.78
2022-10-27T08:35:22.892Z,14.85
2022-10-27T08:37:48.896Z,14.94
2022-10-27T08:40:15.325Z,15.09
2022-10-27T08:43:03.183Z,15.03
2022-10-27T08:45:33.746Z,15.15
2022-10-27T08:48:00.756Z,15.22
2022-10-27T08:50:32.263Z,15.28
2022-10-27T08:53:01.041Z,15.42
2022-10-27T08:55:38.002Z,15.49
2022-10-27T08:58:19.566Z,15.39
2022-10-27T09:00:57.109Z,15.48
2022-10-27T09:03:46.709Z,15.53
2022-10-27T09:06:22.468Z,15.56
2022-10-27T09:09:11.494Z,15.56
2022-10-27T09:11:55.393Z,15.69
2022-10-27T09:14:46.626Z,15.75
2022-10-27T09:17:28.884Z,15.87
2022-10-27T09:20:08.141Z,16.16
2022-10-27T09:22:38.265Z,16.33
2022-10-27T09:25:12.087Z,16.76
2022-10-27T09:27:38.112Z,16.90
2022-10-27T09:30:10.590Z,17.47
2022-10-27T09:32:40.402Z,18.26
2022-10-27T09:35:28.164Z,18.61
2022-10-27T09:37:57.055Z,20.11
2022-10-27T09:40:25.134Z,22.14
2022-10-27T09:42:54.171Z,25.53
2022-10-27T09:45:23.255Z,27.90
2022-10-27T09:47:53.694Z,28.92
2022-10-27T09:50:29.351Z,29.37
2022-10-27T09:52:55.257Z,31.02
2022-10-27T09:55:21.222Z,30.92
2022-10-27T09:57:49.182Z,33.67
2022-10-27T10:00:21.363Z,33.61
2022-10-27T10:05:35.850Z,34.36
2022-10-27T10:08:13.828Z,33.69
2022-10-27T10:10:52.197Z,32.84
2022-10-27T10:13:19.763Z,32.20
2022-10-27T10:15:46.191Z,32.60
2022-10-27T10:18:27.734Z,32.94
2022-10-27T10:21:07.231Z,34.95
2022-10-27T10:23:47.876Z,34.86
2022-10-27T10:26:25.635Z,36.56
2022-10-27T10:29:17.226Z,36.93
2022-10-27T10:31:44.871Z,34.10
2022-10-27T10:34:32.293Z,33.97
2022-10-27T10:36:58.278Z,35.85
2022-10-27T10:39:26.555Z,36.50
2022-10-27T10:42:10.329Z,35.49
2022-10-27T10:44:37.043Z,36.70
2022-10-27T10:47:04.043Z,35.84
2022-10-27T10:49:41.569Z,37.21
2022-10-27T10:52:18.394Z,37.35
2022-10-27T10:54:46.243Z,38.60
2022-10-27T10:57:45.182Z,36.41
2022-10-27T11:00:18.614Z,35.84
2022-10-27T11:03:01.046Z,33.84
2022-10-27T11:05:35.280Z,33.16
2022-10-27T11:08:03.534Z,32.60
2022-10-27T11:10:41.496Z,31.22
2022-10-27T11:13:19.438Z,32.24
2022-10-27T11:15:56.878Z,31.26
2022-10-27T11:18:26.178Z,32.93
2022-10-27T11:20:56.296Z,34.40
2022-10-27T11:23:29.237Z,32.87
2022-10-27T11:26:01.547Z,33.44
2022-10-27T11:28:32.014Z,33.65
2022-10-27T11:31:17.885Z,34.68
2022-10-27T11:33:55.674Z,32.92
2022-10-27T11:36:40.598Z,33.85
2022-10-27T11:39:09.761Z,29.95
2022-10-27T11:41:45.492Z,29.55
2022-10-27T11:44:15.746Z,30.51
2022-10-27T11:49:33.823Z,27.49
2022-10-27T11:52:16.847Z,27.25
2022-10-27T11:54:42.761Z,28.20
2022-10-27T11:57:40.564Z,30.40
2022-10-27T12:00:16.200Z,29.34
2022-10-27T12:02:54.826Z,30.31
2022-10-27T12:05:32.557Z,29.71
2022-10-27T12:07:58.432Z,30.22
2022-10-27T12:11:02.890Z,28.59
2022-10-27T12:13:43.732Z,30.24
2022-10-27T12:16:20.112Z,31.25
2022-10-27T12:18:54.637Z,31.54
2022-10-27T12:21:34.761Z,32.42
2022-10-27T12:24:06.610Z,33.42
2022-10-27T12:26:58.759Z,33.11
2022-10-27T12:29:33.843Z,30.94
2022-10-27T12:32:10.826Z,30.34
2022-10-27T12:34:43.022Z,28.21
2022-10-27T12:37:23.454Z,28.52
2022-10-27T12:39:59.006Z,28.30
2022-10-27T12:42:30.808Z,28.75
2022-10-27T12:45:00.548Z,29.24
2022-10-27T12:47:53.401Z,29.47
2022-10-27T12:50:42.017Z,29.12
2022-10-27T12:53:26.411Z,29.80
2022-10-27T12:55:58.180Z,28.29
2022-10-27T12:58:37.554Z,27.45
2022-10-27T13:01:24.397Z,27.87
2022-10-27T13:04:08.654Z,27.83
2022-10-27T13:07:05.576Z,28.10
2022-10-27T13:09:41.702Z,27.07
2022-10-27T13:12:35.168Z,26.46
2022-10-27T13:15:22.698Z,25.75
2022-10-27T13:18:04.940Z,24.87
2022-10-27T13:21:01.003Z,23.59
2022-10-27T13:23:36.001Z,23.18
2022-10-27T13:26:11.066Z,23.45
2022-10-27T13:28:44.647Z,23.09
2022-10-27T13:31:22.515Z,22.34
2022-10-27T13:36:27.387Z,21.34
2022-10-27T13:39:15.168Z,20.97
2022-10-27T13:41:56.080Z,21.01
2022-10-27T13:44:40.383Z,21.01
2022-10-27T13:47:11.379Z,20.46
2022-10-27T13:49:39.911Z,20.39
2022-10-27T13:52:14.526Z,20.50
2022-10-27T13:54:52.226Z,20.54
2022-10-27T13:57:50.649Z,20.30
2022-10-27T14:00:22.549Z,20.35
2022-10-27T14:03:14.749Z,20.37
2022-10-27T14:08:45.543Z,20.08
2022-10-27T14:11:22.489Z,20.13
2022-10-27T14:13:52.327Z,20.08
2022-10-27T14:16:33.733Z,20.14
2022-10-27T14:19:15.341Z,19.90
2022-10-27T14:21:45.446Z,19.95
2022-10-27T14:24:29.952Z,19.75
2022-10-27T14:26:57.976Z,19.71
2022-10-27T14:29:24.125Z,19.56
2022-10-27T14:31:50.504Z,19.56
2022-10-27T14:34:24.017Z,19.53
2022-10-27T14:36:53.686Z,19.45
2022-10-27T14:39:33.671Z,19.41
2022-10-27T14:42:04.134Z,19.33
2022-10-27T14:44:33.233Z,19.33
2022-10-27T14:47:12.188Z,19.23
2022-10-27T14:49:48.984Z,19.34
2022-10-27T14:52:21.381Z,19.36
2022-10-27T14:54:53.161Z,19.43
2022-10-27T14:57:35.987Z,19.31
2022-10-27T15:00:19.150Z,19.22
2022-10-27T15:02:45.429Z,19.29
2022-10-27T15:05:21.561Z,19.12
2022-10-27T15:07:51.988Z,19.08
2022-10-27T15:10:18.240Z,19.05
2022-10-27T15:12:52.209Z,19.05
2022-10-27T15:15:19.136Z,18.81
2022-10-27T15:17:45.292Z,18.81
2022-10-27T15:20:16.469Z,18.81
2022-10-27T15:22:46.590Z,18.68
2022-10-27T15:25:15.359Z,18.62
2022-10-27T15:27:43.497Z,18.56
2022-10-27T15:30:20.186Z,18.61
2022-10-27T15:32:46.486Z,18.41
2022-10-27T15:35:24.790Z,18.45
2022-10-27T15:37:50.868Z,18.47
2022-10-27T15:40:33.903Z,18.49
2022-10-27T15:43:00.908Z,18.38
2022-10-27T15:45:40.735Z,18.39
2022-10-27T15:48:24.675Z,18.27
2022-10-27T15:51:09.636Z,18.25
2022-10-27T15:53:43.696Z,18.02
2022-10-27T15:56:24.216Z,18.08
2022-10-27T15:59:19.411Z,18.10
2022-10-27T16:01:47.546Z,18.13
2022-10-27T16:04:36.580Z,18.17
2022-10-27T16:07:11.183Z,18.10
2022-10-27T16:09:47.472Z,18.02
2022-10-27T16:12:13.902Z,18.10
2022-10-27T16:14:45.826Z,18.00
2022-10-27T16:17:16.041Z,17.89
2022-10-27T16:19:42.096Z,17.78
2022-10-27T16:22:19.321Z,17.87
2022-10-27T16:24:45.338Z,17.90
2022-10-27T16:27:21.537Z,17.87
2022-10-27T16:29:56.539Z,17.78
2022-10-27T16:32:22.616Z,17.74
2022-10-27T16:34:48.379Z,17.62
2022-10-27T16:37:21.444Z,17.60
2022-10-27T16:39:47.203Z,17.55
2022-10-27T16:42:13.263Z,17.51
2022-10-27T16:44:39.214Z,17.52
2022-10-27T16:47:07.171Z,17.61
2022-10-27T16:49:33.959Z,17.51
2022-10-27T16:52:01.126Z,17.55
2022-10-27T16:54:27.356Z,17.50
2022-10-27T16:56:53.070Z,17.54
2022-10-27T16:59:18.870Z,17.58
2022-10-27T17:01:44.758Z,17.56
2022-10-27T17:04:10.529Z,17.53
2022-10-27T17:06:36.263Z,17.43
2022-10-27T17:09:02.115Z,17.41
2022-10-27T17:11:28.184Z,17.33
2022-10-27T17:13:54.111Z,17.39
2022-10-27T17:16:19.864Z,17.33
2022-10-27T17:18:46.921Z,17.27
2022-10-27T17:21:13.653Z,17.30
2022-10-27T17:23:42.760Z,17.16
2022-10-27T17:26:10.135Z,17.26
2022-10-27T17:28:36.285Z,17.17
2022-10-27T17:31:07.688Z,17.29
2022-10-27T17:33:35.180Z,17.29
2022-10-27T17:36:06.746Z,17.28
2022-10-27T17:38:33.320Z,17.20
2022-10-27T17:40:59.488Z,17.23
2022-10-27T17:43:25.585Z,17.36
2022-10-27T17:46:10.752Z,17.24
2022-10-27T17:48:44.557Z,17.08
2022-10-27T17:51:13.522Z,17.10
2022-10-27T17:53:40.362Z,17.05
2022-10-27T17:56:11.720Z,17.06
2022-10-27T17:58:39.469Z,17.04
2022-10-27T18:01:11.074Z,17.04
2022-10-27T18:03:41.202Z,17.08
2022-10-27T18:06:09.658Z,17.17
2022-10-27T18:08:35.714Z,17.09
2022-10-27T18:11:13.174Z,17.07
2022-10-27T18:13:41.143Z,17.11
2022-10-27T18:16:09.623Z,17.03
2022-10-27T18:18:35.854Z,17.15
2022-10-27T18:21:06.912Z,17.11
2022-10-27T18:23:33.534Z,17.13
2022-10-27T18:26:04.027Z,17.16
2022-10-27T18:28:30.735Z,17.19
2022-10-27T18:31:05.025Z,17.22
2022-10-27T18:33:31.180Z,17.24
2022-10-27T18:36:09.195Z,17.25
2022-10-27T18:38:35.412Z,17.13
2022-10-27T18:41:03.500Z,17.16
2022-10-27T18:43:29.746Z,17.21
2022-10-27T18:46:03.718Z,17.10
2022-10-27T18:48:29.922Z,17.18
2022-10-27T18:51:01.376Z,17.19
2022-10-27T18:53:27.103Z,17.24
2022-10-27T18:55:53.159Z,17.26
2022-10-27T18:58:21.659Z,17.20
2022-10-27T19:00:47.501Z,17.18
2022-10-27T19:03:15.571Z,17.31
2022-10-27T19:05:41.349Z,17.23
2022-10-27T19:08:07.156Z,17.14
2022-10-27T19:10:32.940Z,16.97
2022-10-27T19:12:58.820Z,16.95
2022-10-27T19:15:26.047Z,17.00
2022-10-27T19:17:52.585Z,16.92
2022-10-27T19:20:19.281Z,16.92
2022-10-27T19:22:47.974Z,16.87
2022-10-27T19:25:14.111Z,16.88
2022-10-27T19:27:40.130Z,16.93
2022-10-27T19:30:06.512Z,16.85
2022-10-27T19:32:34.048Z,16.86
2022-10-27T19:35:00.111Z,16.86
2022-10-27T19:37:26.044Z,16.84
2022-10-27T19:39:51.803Z,16.75
2022-10-27T19:42:18.228Z,16.86
2022-10-27T19:44:43.981Z,16.69
2022-10-27T19:47:09.794Z,16.64
2022-10-27T19:49:35.668Z,16.74
2022-10-27T19:52:01.608Z,16.73
2022-10-27T19:54:27.400Z,16.74
2022-10-27T19:56:53.267Z,16.82
2022-10-27T19:59:24.815Z,16.80
2022-10-27T20:01:52.966Z,16.78
2022-10-27T20:04:20.427Z,16.76
2022-10-27T20:06:46.237Z,16.73
2022-10-27T20:09:16.843Z,16.87
2022-10-27T20:11:43.932Z,16.72
2022-10-27T20:14:11.035Z,16.74
2022-10-27T20:16:40.000Z,16.72
2022-10-27T20:19:08.600Z,16.85
2022-10-27T20:21:34.578Z,16.85
2022-10-27T20:24:02.866Z,16.95
2022-10-27T20:26:29.809Z,16.87
2022-10-27T20:28:58.032Z,16.85
2022-10-27T20:31:23.869Z,16.76
2022-10-27T20:33:49.741Z,16.85
2022-10-27T20:36:15.740Z,16.81
2022-10-27T20:38:43.036Z,16.78
2022-10-27T20:41:12.811Z,16.72
2022-10-27T20:43:38.649Z,16.78
2022-10-27T20:46:04.655Z,16.67
2022-10-27T20:48:30.704Z,16.76
2022-10-27T20:51:04.068Z,16.76
2022-10-27T20:53:31.348Z,16.77
2022-10-27T20:55:57.728Z,16.72
2022-10-27T20:58:24.482Z,16.62
2022-10-27T21:00:50.824Z,16.65
2022-10-27T21:03:17.509Z,16.64
2022-10-27T21:05:44.796Z,16.70
2022-10-27T21:08:11.064Z,16.65
2022-10-27T21:10:43.160Z,16.68
2022-10-27T21:13:10.950Z,16.81
2022-10-27T21:15:37.220Z,16.87
2022-10-27T21:18:03.828Z,16.78
2022-10-27T21:20:30.114Z,16.78
2022-10-27T21:22:56.103Z,16.77
2022-10-27T21:25:22.617Z,16.70
2022-10-27T21:27:52.576Z,16.76
2022-10-27T21:30:18.953Z,16.65
2022-10-27T21:32:44.753Z,16.70
2022-10-27T21:35:10.478Z,16.75
2022-10-27T21:37:36.799Z,16.72
2022-10-27T21:40:02.732Z,16.68
2022-10-27T21:42:28.484Z,16.68
2022-10-27T21:44:55.923Z,16.64
2022-10-27T21:47:21.703Z,16.66
2022-10-27T21:49:47.461Z,16.66
2022-10-27T21:52:13.196Z,16.65
2022-10-27T21:54:38.987Z,16.52
2022-10-27T21:57:04.796Z,16.49
2022-10-27T21:59:30.936Z,16.55
2022-10-27T22:01:56.642Z,16.51
2022-10-27T22:04:24.729Z,16.60
2022-10-27T22:06:52.924Z,16.67
2022-10-27T22:11:50.379Z,16.75
2022-10-27T22:14:16.235Z,16.73
2022-10-27T22:16:44.892Z,16.68
2022-10-27T22:19:11.541Z,16.80
2022-10-27T22:21:38.301Z,16.75
2022-10-27T22:24:05.865Z,16.72
2022-10-27T22:26:32.821Z,16.65
2022-10-27T22:28:59.057Z,16.74
2022-10-27T22:31:27.483Z,16.68
2022-10-27T22:33:54.212Z,16.70
2022-10-27T22:36:21.414Z,16.66
2022-10-27T22:38:54.815Z,16.64
2022-10-27T22:41:20.892Z,16.53
2022-10-27T22:43:46.661Z,16.55
2022-10-27T22:46:23.196Z,16.51
2022-10-27T22:48:49.439Z,16.58
2022-10-27T22:51:18.917Z,16.59
2022-10-27T22:53:45.826Z,16.57
2022-10-27T22:56:17.181Z,16.55
2022-10-27T22:58:46.692Z,16.66
2022-10-27T23:01:17.671Z,16.68
2022-10-27T23:03:44.132Z,16.72
2022-10-27T23:06:10.547Z,16.78
2022-10-27T23:08:36.579Z,16.77
2022-10-27T23:11:05.011Z,16.78
2022-10-27T23:13:33.600Z,16.83
2022-10-27T23:16:01.812Z,16.79
2022-10-27T23:18:27.805Z,16.80
2022-10-27T23:20:58.214Z,16.88
2022-10-27T23:23:24.939Z,16.85
2022-10-27T23:25:51.460Z,16.93
2022-10-27T23:28:17.962Z,16.99
2022-10-27T23:30:44.329Z,16.86
2022-10-27T23:33:10.095Z,16.91
2022-10-27T23:35:35.821Z,16.86
2022-10-27T23:38:01.897Z,17.03
2022-10-27T23:40:27.768Z,17.11
2022-10-27T23:42:53.991Z,17.14
2022-10-27T23:45:20.443Z,17.15
2022-10-27T23:47:46.399Z,17.17
2022-10-27T23:50:12.203Z,17.14
2022-10-27T23:52:38.024Z,17.23
2022-10-27T23:55:04.517Z,17.07
2022-10-27T23:57:30.639Z,17.03
2022-10-27T23:59:56.461Z,16.98
